createdAt,value
2018-08-18T00:01:16.467Z,13.60
2018-08-18T00:03:44.304Z,13.55
2018-08-18T00:06:12.200Z,13.52
2018-08-18T00:08:39.947Z,13.45
2018-08-18T00:11:08.097Z,13.41
2018-08-18T00:13:51.037Z,13.35
2018-08-18T00:16:23.686Z,13.31
2018-08-18T00:18:53.649Z,13.23
2018-08-18T00:21:21.525Z,13.15
2018-08-18T00:24:00.472Z,13.04
2018-08-18T00:26:28.813Z,12.95
2018-08-18T00:28:56.585Z,12.85
2018-08-18T00:31:24.499Z,12.75
2018-08-18T00:33:52.325Z,12.63
2018-08-18T00:36:20.084Z,12.53
2018-08-18T00:38:47.982Z,12.42
2018-08-18T00:41:15.829Z,12.34
2018-08-18T00:43:43.628Z,12.30
2018-08-18T00:46:11.440Z,12.26
2018-08-18T00:48:39.227Z,12.20
2018-08-18T00:51:06.979Z,12.12
2018-08-18T00:53:34.784Z,12.06
2018-08-18T00:56:04.223Z,11.99
2018-08-18T00:58:32.059Z,11.95
2018-08-18T01:01:05.456Z,11.86
2018-08-18T01:03:45.492Z,11.82
2018-08-18T01:06:18.038Z,11.77
2018-08-18T01:08:46.584Z,11.75
2018-08-18T01:11:15.290Z,11.68
2018-08-18T01:13:43.158Z,11.61
2018-08-18T01:16:10.962Z,11.55
2018-08-18T01:18:38.735Z,11.50
2018-08-18T01:21:06.749Z,11.46
2018-08-18T01:23:34.483Z,11.39
2018-08-18T01:26:02.278Z,11.33
2018-08-18T01:28:30.137Z,11.29
2018-08-18T01:31:09.154Z,11.23
2018-08-18T01:33:38.154Z,11.15
2018-08-18T01:36:06.005Z,11.12
2018-08-18T01:38:35.217Z,11.05
2018-08-18T01:41:15.140Z,10.98
2018-08-18T01:43:45.144Z,10.94
2018-08-18T01:46:15.860Z,10.88
2018-08-18T01:48:44.275Z,10.85
2018-08-18T01:51:16.227Z,10.81
2018-08-18T01:53:45.470Z,10.77
2018-08-18T01:56:13.569Z,10.76
2018-08-18T01:58:41.345Z,10.72
2018-08-18T02:01:09.048Z,10.66
2018-08-18T02:03:36.857Z,10.61
2018-08-18T02:06:04.642Z,10.53
2018-08-18T02:08:38.968Z,10.50
2018-08-18T02:11:06.726Z,10.44
2018-08-18T02:13:34.847Z,10.41
2018-08-18T02:16:02.696Z,10.41
2018-08-18T02:18:30.470Z,10.40
2018-08-18T02:20:58.231Z,10.35
2018-08-18T02:23:25.982Z,10.31
2018-08-18T02:25:53.760Z,10.28
2018-08-18T02:28:29.436Z,10.26
2018-08-18T02:30:57.228Z,10.23
2018-08-18T02:33:25.693Z,10.19
2018-08-18T02:35:53.584Z,10.24
2018-08-18T02:38:21.379Z,10.36
2018-08-18T02:40:49.152Z,10.44
2018-08-18T02:43:23.212Z,10.52
2018-08-18T02:45:50.956Z,10.57
2018-08-18T02:48:20.099Z,10.57
2018-08-18T02:50:50.290Z,10.59
2018-08-18T02:53:23.517Z,10.59
2018-08-18T02:55:51.379Z,10.58
2018-08-18T02:58:19.209Z,10.57
2018-08-18T03:00:47.057Z,10.56
2018-08-18T03:03:15.352Z,10.49
2018-08-18T03:05:43.183Z,10.47
2018-08-18T03:08:11.051Z,10.47
2018-08-18T03:10:38.808Z,10.43
2018-08-18T03:13:06.651Z,10.40
2018-08-18T03:16:08.882Z,10.40
2018-08-18T03:18:54.617Z,10.35
2018-08-18T03:21:29.005Z,10.30
2018-08-18T03:24:22.420Z,10.23
2018-08-18T03:26:53.388Z,10.21
2018-08-18T03:29:22.435Z,10.21
2018-08-18T03:31:50.552Z,10.21
2018-08-18T03:34:18.628Z,10.19
2018-08-18T03:36:49.722Z,10.17
2018-08-18T03:39:24.758Z,10.16
2018-08-18T03:41:54.038Z,10.17
2018-08-18T03:44:22.128Z,10.18
2018-08-18T03:46:50.913Z,10.15
2018-08-18T03:49:19.044Z,10.16
2018-08-18T03:51:47.985Z,10.19
2018-08-18T03:54:15.815Z,10.24
2018-08-18T03:56:43.921Z,10.31
2018-08-18T03:59:11.690Z,10.36
2018-08-18T04:01:48.528Z,10.37
2018-08-18T04:04:17.244Z,10.45
2018-08-18T04:06:46.350Z,10.51
2018-08-18T04:09:15.316Z,10.57
2018-08-18T04:11:43.098Z,10.73
2018-08-18T04:14:10.948Z,10.81
2018-08-18T04:16:49.130Z,10.92
2018-08-18T04:19:18.057Z,11.09
2018-08-18T04:21:46.071Z,11.15
2018-08-18T04:24:14.304Z,11.20
2018-08-18T04:26:42.133Z,11.25
2018-08-18T04:29:10.338Z,11.33
2018-08-18T04:31:38.141Z,11.41
2018-08-18T04:34:07.164Z,11.46
2018-08-18T04:36:35.357Z,11.55
2018-08-18T04:39:12.261Z,11.65
2018-08-18T04:41:40.649Z,11.76
2018-08-18T04:44:08.770Z,11.88
2018-08-18T04:46:36.594Z,12.02
2018-08-18T04:49:04.978Z,12.23
2018-08-18T04:51:32.792Z,12.53
2018-08-18T04:54:00.829Z,12.93
2018-08-18T04:56:28.676Z,13.38
2018-08-18T04:58:57.465Z,13.86
2018-08-18T05:01:25.416Z,14.27
2018-08-18T05:04:05.859Z,14.69
2018-08-18T05:06:34.476Z,15.11
2018-08-18T05:09:04.425Z,15.48
2018-08-18T05:11:32.273Z,15.97
2018-08-18T05:14:00.061Z,16.45
2018-08-18T05:16:28.088Z,16.82
2018-08-18T05:18:55.885Z,17.05
2018-08-18T05:21:24.222Z,17.37
2018-08-18T05:23:52.288Z,17.64
2018-08-18T05:26:20.153Z,17.87
2018-08-18T05:28:48.285Z,18.11
2018-08-18T05:31:17.447Z,18.07
2018-08-18T05:33:45.282Z,18.47
2018-08-18T05:36:13.080Z,18.84
2018-08-18T05:38:42.093Z,18.96
2018-08-18T05:41:10.152Z,19.36
2018-08-18T05:43:38.029Z,19.70
2018-08-18T05:46:06.021Z,19.71
2018-08-18T05:48:34.085Z,19.86
2018-08-18T05:51:01.959Z,19.92
2018-08-18T05:53:30.970Z,20.09
2018-08-18T05:55:59.564Z,20.27
2018-08-18T05:58:29.391Z,20.33
2018-08-18T06:01:01.936Z,20.46
2018-08-18T06:03:29.794Z,20.62
2018-08-18T06:05:58.112Z,21.05
2018-08-18T06:08:26.016Z,20.90
2018-08-18T06:10:54.029Z,20.86
2018-08-18T06:13:23.140Z,21.19
2018-08-18T06:16:07.616Z,21.63
2018-08-18T06:18:37.205Z,21.76
2018-08-18T06:21:05.810Z,21.94
2018-08-18T06:23:34.002Z,22.30
2018-08-18T06:26:02.548Z,22.41
2018-08-18T06:28:30.386Z,22.56
2018-08-18T06:30:58.237Z,22.34
2018-08-18T06:33:26.971Z,22.49
2018-08-18T06:35:54.811Z,22.74
2018-08-18T06:38:24.921Z,22.91
2018-08-18T06:40:57.397Z,22.77
2018-08-18T06:43:25.668Z,22.77
2018-08-18T06:45:53.507Z,22.56
2018-08-18T06:48:22.308Z,22.56
2018-08-18T06:50:50.109Z,22.73
2018-08-18T06:53:18.005Z,22.85
2018-08-18T06:55:46.053Z,23.32
2018-08-18T06:58:13.845Z,23.34
2018-08-18T07:00:41.695Z,23.14
2018-08-18T07:03:20.874Z,23.00
2018-08-18T07:05:48.765Z,23.71
2018-08-18T07:08:16.522Z,23.82
2018-08-18T07:10:44.329Z,23.36
2018-08-18T07:13:12.344Z,22.87
2018-08-18T07:15:42.637Z,22.83
2018-08-18T07:18:11.773Z,23.17
2018-08-18T07:20:39.633Z,23.41
2018-08-18T07:23:08.096Z,23.86
2018-08-18T07:25:43.295Z,23.89
2018-08-18T07:28:12.128Z,23.97
2018-08-18T07:30:39.864Z,24.23
2018-08-18T07:33:07.708Z,24.06
2018-08-18T07:35:35.542Z,24.01
2018-08-18T07:38:03.628Z,24.03
2018-08-18T07:40:52.880Z,24.21
2018-08-18T07:43:32.194Z,24.07
2018-08-18T07:46:03.656Z,24.02
2018-08-18T07:48:31.436Z,23.77
2018-08-18T07:50:59.257Z,24.02
2018-08-18T07:53:27.114Z,23.98
2018-08-18T07:55:54.880Z,24.17
2018-08-18T07:58:23.788Z,24.14
2018-08-18T08:00:51.945Z,23.87
2018-08-18T08:03:20.469Z,24.24
2018-08-18T08:05:48.323Z,24.47
2018-08-18T08:08:16.119Z,24.49
2018-08-18T08:10:43.865Z,24.76
2018-08-18T08:13:12.932Z,24.40
2018-08-18T08:15:40.894Z,24.15
2018-08-18T08:18:11.135Z,24.16
2018-08-18T08:20:38.867Z,24.30
2018-08-18T08:23:06.772Z,24.36
2018-08-18T08:25:34.742Z,24.62
2018-08-18T08:28:02.570Z,24.75
2018-08-18T08:30:30.766Z,24.34
2018-08-18T08:32:58.613Z,24.60
2018-08-18T08:35:26.468Z,24.36
2018-08-18T08:37:54.540Z,23.90
2018-08-18T08:40:22.937Z,23.51
2018-08-18T08:42:50.845Z,23.52
2018-08-18T08:45:19.768Z,23.52
2018-08-18T08:47:48.219Z,24.00
2018-08-18T08:50:21.086Z,24.08
2018-08-18T08:52:59.660Z,24.33
2018-08-18T08:55:28.378Z,24.34
2018-08-18T08:57:56.209Z,24.02
2018-08-18T09:00:23.982Z,24.00
2018-08-18T09:02:51.756Z,23.82
2018-08-18T09:05:19.832Z,23.60
2018-08-18T09:07:47.646Z,23.78
2018-08-18T09:10:15.883Z,23.99
2018-08-18T09:12:43.819Z,24.02
2018-08-18T09:15:12.844Z,24.02
2018-08-18T09:17:40.722Z,23.62
2018-08-18T09:20:11.398Z,23.73
2018-08-18T09:23:00.637Z,23.66
2018-08-18T09:25:29.984Z,23.64
2018-08-18T09:28:00.945Z,23.99
2018-08-18T09:30:30.012Z,23.17
2018-08-18T09:33:00.836Z,23.05
2018-08-18T09:35:28.764Z,23.06
2018-08-18T09:38:01.230Z,22.86
2018-08-18T09:40:30.780Z,22.78
2018-08-18T09:42:58.608Z,22.60
2018-08-18T09:45:26.541Z,22.47
2018-08-18T09:47:54.361Z,22.91
2018-08-18T09:50:22.169Z,23.24
2018-08-18T09:52:50.154Z,22.98
2018-08-18T09:55:17.967Z,22.76
2018-08-18T09:57:45.824Z,22.65
2018-08-18T10:00:13.932Z,22.48
2018-08-18T10:02:42.140Z,23.16
2018-08-18T10:05:10.366Z,23.29
2018-08-18T10:07:39.088Z,22.82
2018-08-18T10:10:08.687Z,22.74
2018-08-18T10:12:36.548Z,23.04
2018-08-18T10:15:04.316Z,23.08
2018-08-18T10:17:32.447Z,23.05
2018-08-18T10:20:00.513Z,23.02
2018-08-18T10:22:28.280Z,23.26
2018-08-18T10:24:56.081Z,23.06
2018-08-18T10:27:23.933Z,22.98
2018-08-18T10:29:51.670Z,22.09
2018-08-18T10:32:19.425Z,22.31
2018-08-18T10:34:47.220Z,22.49
2018-08-18T10:37:14.956Z,22.73
2018-08-18T10:39:42.789Z,22.80
2018-08-18T10:42:13.697Z,22.60
2018-08-18T10:44:46.467Z,22.90
2018-08-18T10:47:15.719Z,22.91
2018-08-18T10:49:54.757Z,22.82
2018-08-18T10:52:34.781Z,22.55
2018-08-18T10:55:04.644Z,22.44
2018-08-18T10:57:44.594Z,22.51
2018-08-18T11:00:16.307Z,22.57
2018-08-18T11:02:46.925Z,22.40
2018-08-18T11:05:15.882Z,21.96
2018-08-18T11:07:49.793Z,22.08
2018-08-18T11:10:17.702Z,21.83
2018-08-18T11:12:45.487Z,21.89
2018-08-18T11:15:13.493Z,22.26
2018-08-18T11:17:41.380Z,22.23
2018-08-18T11:20:16.252Z,22.43
2018-08-18T11:23:14.811Z,22.20
2018-08-18T11:25:50.616Z,21.56
2018-08-18T11:28:19.072Z,21.31
2018-08-18T11:30:47.151Z,20.99
2018-08-18T11:33:31.780Z,21.24
2018-08-18T11:35:59.571Z,21.53
2018-08-18T11:38:27.715Z,21.81
2018-08-18T11:40:55.454Z,21.43
2018-08-18T11:43:23.248Z,21.58
2018-08-18T11:45:51.008Z,21.69
2018-08-18T11:48:20.090Z,21.87
2018-08-18T11:50:48.516Z,21.90
2018-08-18T11:53:16.349Z,22.07
2018-08-18T11:55:44.244Z,21.76
2018-08-18T11:58:14.690Z,21.70
2018-08-18T12:00:57.065Z,21.79
2018-08-18T12:03:28.328Z,21.53
2018-08-18T12:05:57.200Z,21.05
2018-08-18T12:08:27.150Z,20.85
2018-08-18T12:10:56.596Z,20.53
2018-08-18T12:13:30.467Z,20.23
2018-08-18T12:16:17.676Z,20.21
2018-08-18T12:18:46.362Z,20.21
2018-08-18T12:21:14.515Z,20.17
2018-08-18T12:23:47.560Z,19.72
2018-08-18T12:26:17.521Z,19.76
2018-08-18T12:28:46.260Z,19.58
2018-08-18T12:31:15.857Z,19.64
2018-08-18T12:33:43.711Z,19.54
2018-08-18T12:36:11.756Z,19.43
2018-08-18T12:38:41.856Z,19.49
2018-08-18T12:41:09.605Z,19.22
2018-08-18T12:43:38.695Z,19.24
2018-08-18T12:46:08.274Z,19.08
2018-08-18T12:48:38.105Z,18.88
2018-08-18T12:51:06.772Z,18.78
2018-08-18T12:53:40.061Z,18.72
2018-08-18T12:56:08.445Z,18.83
2018-08-18T12:58:36.369Z,18.74
2018-08-18T13:01:04.564Z,18.43
2018-08-18T13:03:32.352Z,18.52
2018-08-18T13:06:00.111Z,18.30
2018-08-18T13:08:27.845Z,18.21
2018-08-18T13:10:56.224Z,18.15
2018-08-18T13:13:24.341Z,18.13
2018-08-18T13:15:54.021Z,18.19
2018-08-18T13:18:22.089Z,18.35
2018-08-18T13:20:50.962Z,18.49
2018-08-18T13:23:21.123Z,18.33
2018-08-18T13:25:49.216Z,18.25
2018-08-18T13:28:17.053Z,18.20
2018-08-18T13:30:44.871Z,18.22
2018-08-18T13:33:12.768Z,18.30
2018-08-18T13:35:40.604Z,18.49
2018-08-18T13:38:31.581Z,18.52
2018-08-18T13:40:59.462Z,18.55
2018-08-18T13:43:39.060Z,18.50
2018-08-18T13:46:07.865Z,18.74
2018-08-18T13:48:35.583Z,18.93
2018-08-18T13:51:03.469Z,18.98
2018-08-18T13:53:37.320Z,18.95
2018-08-18T13:56:06.612Z,18.91
2018-08-18T13:58:34.452Z,18.94
2018-08-18T14:01:10.913Z,18.85
2018-08-18T14:03:38.727Z,18.64
2018-08-18T14:06:06.578Z,18.67
2018-08-18T14:08:34.327Z,18.49
2018-08-18T14:11:02.231Z,18.37
2018-08-18T14:13:29.944Z,18.48
2018-08-18T14:15:57.743Z,18.34
2018-08-18T14:18:25.537Z,18.44
2018-08-18T14:21:03.439Z,18.42
2018-08-18T14:23:31.271Z,18.39
2018-08-18T14:25:59.033Z,18.31
2018-08-18T14:28:26.812Z,18.20
2018-08-18T14:30:54.629Z,18.16
2018-08-18T14:33:22.435Z,18.12
2018-08-18T14:35:51.081Z,18.08
2018-08-18T14:38:19.009Z,18.15
2018-08-18T14:40:47.528Z,18.10
2018-08-18T14:43:22.530Z,18.06
2018-08-18T14:45:50.735Z,18.05
2018-08-18T14:48:18.615Z,18.03
2018-08-18T14:50:46.404Z,17.92
2018-08-18T14:53:19.639Z,17.74
2018-08-18T14:55:47.548Z,17.72
2018-08-18T14:58:15.433Z,17.74
2018-08-18T15:00:43.164Z,17.73
2018-08-18T15:03:10.923Z,17.56
2018-08-18T15:05:38.684Z,17.57
2018-08-18T15:08:06.507Z,17.60
2018-08-18T15:10:42.126Z,17.57
2018-08-18T15:13:10.687Z,17.54
2018-08-18T15:15:38.483Z,17.59
2018-08-18T15:18:11.019Z,17.53
2018-08-18T15:20:39.412Z,17.60
2018-08-18T15:23:08.221Z,17.65
2018-08-18T15:25:37.045Z,17.59
2018-08-18T15:28:07.123Z,17.54
2018-08-18T15:30:37.181Z,17.48
2018-08-18T15:33:06.285Z,17.50
2018-08-18T15:35:35.712Z,17.58
2018-08-18T15:38:03.674Z,17.59
2018-08-18T15:40:31.497Z,17.52
2018-08-18T15:43:00.311Z,17.49
2018-08-18T15:45:28.877Z,17.54
2018-08-18T15:47:56.755Z,17.53
2018-08-18T15:50:25.361Z,17.55
2018-08-18T15:52:53.165Z,17.55
2018-08-18T15:55:21.000Z,17.58
2018-08-18T15:57:48.804Z,17.56
2018-08-18T16:00:30.472Z,17.49
2018-08-18T16:02:58.940Z,17.48
2018-08-18T16:05:27.511Z,17.47
2018-08-18T16:07:55.708Z,17.40
2018-08-18T16:10:23.471Z,17.26
2018-08-18T16:12:51.271Z,17.18
2018-08-18T16:15:20.428Z,17.13
2018-08-18T16:17:48.226Z,17.05
2018-08-18T16:20:24.749Z,17.05
2018-08-18T16:22:55.075Z,17.04
2018-08-18T16:25:33.854Z,17.02
2018-08-18T16:28:01.978Z,16.96
2018-08-18T16:30:29.758Z,16.95
2018-08-18T16:33:18.323Z,16.86
2018-08-18T16:35:46.365Z,16.82
2018-08-18T16:38:14.158Z,16.80
2018-08-18T16:40:42.131Z,16.77
2018-08-18T16:43:13.259Z,16.73
2018-08-18T16:45:41.100Z,16.71
2018-08-18T16:48:11.553Z,16.68
2018-08-18T16:50:40.271Z,16.65
2018-08-18T16:53:10.273Z,16.56
2018-08-18T16:55:42.342Z,16.48
2018-08-18T16:58:10.178Z,16.42
2018-08-18T17:00:54.811Z,16.34
2018-08-18T17:03:31.368Z,16.22
2018-08-18T17:06:00.306Z,16.07
2018-08-18T17:08:28.390Z,15.96
2018-08-18T17:10:56.381Z,15.84
2018-08-18T17:13:27.612Z,15.73
2018-08-18T17:15:55.917Z,15.68
2018-08-18T17:18:23.776Z,15.58
2018-08-18T17:21:03.451Z,15.53
2018-08-18T17:23:32.663Z,15.44
2018-08-18T17:26:00.448Z,15.44
2018-08-18T17:28:29.220Z,15.35
2018-08-18T17:30:57.975Z,15.29
2018-08-18T17:33:27.719Z,15.22
2018-08-18T17:35:55.545Z,15.21
2018-08-18T17:38:23.418Z,15.19
2018-08-18T17:40:51.229Z,15.20
2018-08-18T17:43:20.133Z,15.14
2018-08-18T17:46:05.700Z,15.13
2018-08-18T17:48:40.580Z,15.10
2018-08-18T17:51:08.804Z,15.06
2018-08-18T17:53:38.256Z,14.98
2018-08-18T17:56:06.069Z,14.95
2018-08-18T17:58:33.896Z,14.89
2018-08-18T18:01:01.795Z,14.90
2018-08-18T18:03:29.580Z,14.90
2018-08-18T18:05:57.419Z,14.89
2018-08-18T18:08:25.609Z,14.87
2018-08-18T18:10:53.406Z,14.85
2018-08-18T18:13:25.297Z,14.82
2018-08-18T18:15:53.338Z,14.77
2018-08-18T18:18:22.261Z,14.77
2018-08-18T18:20:51.430Z,14.74
2018-08-18T18:23:19.662Z,14.75
2018-08-18T18:25:47.510Z,14.76
2018-08-18T18:28:15.269Z,14.76
2018-08-18T18:30:43.070Z,14.74
2018-08-18T18:33:11.363Z,14.73
2018-08-18T18:35:39.225Z,14.75
2018-08-18T18:38:07.207Z,14.77
2018-08-18T18:40:37.154Z,14.77
2018-08-18T18:43:05.028Z,14.82
2018-08-18T18:45:32.857Z,14.81
2018-08-18T18:48:00.700Z,14.82
2018-08-18T18:50:28.504Z,14.84
2018-08-18T18:52:56.260Z,14.84
2018-08-18T18:55:24.067Z,14.83
2018-08-18T18:58:04.808Z,14.85
2018-08-18T19:00:34.324Z,14.82
2018-08-18T19:03:02.437Z,14.84
2018-08-18T19:05:31.203Z,14.82
2018-08-18T19:08:18.047Z,14.79
2018-08-18T19:10:46.095Z,14.76
2018-08-18T19:13:13.929Z,14.72
2018-08-18T19:15:41.774Z,14.70
2018-08-18T19:18:10.784Z,14.67
2018-08-18T19:20:38.585Z,14.63
2018-08-18T19:23:12.483Z,14.61
2018-08-18T19:25:42.434Z,14.58
2018-08-18T19:28:11.158Z,14.54
2018-08-18T19:30:38.876Z,14.47
2018-08-18T19:33:06.657Z,14.44
2018-08-18T19:35:41.937Z,14.43
2018-08-18T19:38:09.823Z,14.40
2018-08-18T19:40:38.809Z,14.35
2018-08-18T19:43:08.997Z,14.31
2018-08-18T19:45:36.731Z,14.26
2018-08-18T19:48:04.532Z,14.24
2018-08-18T19:50:32.265Z,14.19
2018-08-18T19:53:05.497Z,14.18
2018-08-18T19:55:33.223Z,14.14
2018-08-18T19:58:00.938Z,14.14
2018-08-18T20:00:28.696Z,14.11
2018-08-18T20:03:00.451Z,14.12
2018-08-18T20:05:28.238Z,14.12
2018-08-18T20:07:56.068Z,14.11
2018-08-18T20:10:24.343Z,14.11
2018-08-18T20:12:52.117Z,14.13
2018-08-18T20:15:19.884Z,14.13
2018-08-18T20:17:47.680Z,14.15
2018-08-18T20:20:22.379Z,14.18
2018-08-18T20:22:50.285Z,14.19
2018-08-18T20:25:18.042Z,14.22
2018-08-18T20:27:45.814Z,14.22
2018-08-18T20:30:14.560Z,14.23
2018-08-18T20:32:42.364Z,14.20
2018-08-18T20:35:10.221Z,14.21
2018-08-18T20:37:38.000Z,14.18
2018-08-18T20:40:06.988Z,14.16
2018-08-18T20:42:44.765Z,14.12
2018-08-18T20:45:13.219Z,14.11
2018-08-18T20:47:42.588Z,14.08
2018-08-18T20:50:10.944Z,14.07
2018-08-18T20:52:39.146Z,14.04
2018-08-18T20:55:07.736Z,14.03
2018-08-18T20:57:35.540Z,13.99
2018-08-18T21:00:03.728Z,14.06
2018-08-18T21:02:31.484Z,14.03
2018-08-18T21:05:01.483Z,14.06
2018-08-18T21:07:30.390Z,14.05
2018-08-18T21:09:58.568Z,14.07
2018-08-18T21:12:33.118Z,14.09
2018-08-18T21:15:01.179Z,14.11
2018-08-18T21:17:29.631Z,14.13
2018-08-18T21:19:57.348Z,14.15
2018-08-18T21:22:29.053Z,14.17
2018-08-18T21:24:57.106Z,14.20
2018-08-18T21:27:24.869Z,14.20
2018-08-18T21:29:54.008Z,14.23
2018-08-18T21:32:22.460Z,14.26
2018-08-18T21:34:51.280Z,14.29
2018-08-18T21:37:19.349Z,14.30
2018-08-18T21:39:47.344Z,14.31
2018-08-18T21:42:15.071Z,14.33
2018-08-18T21:44:42.840Z,14.36
2018-08-18T21:47:10.627Z,14.38
2018-08-18T21:49:38.437Z,14.37
2018-08-18T21:52:06.727Z,14.40
2018-08-18T21:54:34.550Z,14.41
2018-08-18T21:57:02.316Z,14.43
2018-08-18T21:59:44.499Z,14.45
2018-08-18T22:02:12.254Z,14.47
2018-08-18T22:04:40.025Z,14.41
2018-08-18T22:07:07.836Z,14.46
2018-08-18T22:09:35.571Z,14.46
2018-08-18T22:12:03.405Z,14.48
2018-08-18T22:14:31.193Z,14.47
2018-08-18T22:16:58.978Z,14.48
2018-08-18T22:19:27.843Z,14.43
2018-08-18T22:21:55.641Z,14.45
2018-08-18T22:24:23.861Z,14.46
2018-08-18T22:26:51.703Z,14.44
2018-08-18T22:29:24.922Z,14.43
2018-08-18T22:31:52.837Z,14.42
2018-08-18T22:34:20.565Z,14.41
2018-08-18T22:36:48.349Z,14.40
2018-08-18T22:39:17.502Z,14.37
2018-08-18T22:41:45.225Z,14.35
2018-08-18T22:44:12.973Z,14.32
2018-08-18T22:46:40.749Z,14.27
2018-08-18T22:49:08.528Z,14.22
2018-08-18T22:51:36.305Z,14.14
2018-08-18T22:54:04.076Z,14.12
2018-08-18T22:56:34.781Z,14.10
2018-08-18T22:59:03.829Z,14.04
2018-08-18T23:01:32.446Z,13.99
2018-08-18T23:04:00.670Z,13.97
2018-08-18T23:06:30.551Z,13.96
2018-08-18T23:08:58.260Z,13.94
2018-08-18T23:11:26.114Z,13.91
2018-08-18T23:13:53.891Z,13.87
2018-08-18T23:16:21.944Z,13.84
2018-08-18T23:18:49.706Z,13.79
2018-08-18T23:21:34.175Z,13.76
2018-08-18T23:24:03.856Z,13.70
2018-08-18T23:26:31.615Z,13.66
2018-08-18T23:28:59.377Z,13.62
2018-08-18T23:31:27.179Z,13.60
2018-08-18T23:33:54.878Z,13.57
2018-08-18T23:36:22.588Z,13.49
2018-08-18T23:38:54.875Z,13.42
2018-08-18T23:41:22.628Z,13.35
2018-08-18T23:43:50.613Z,13.29
2018-08-18T23:46:18.380Z,13.27
2018-08-18T23:48:46.128Z,13.26
2018-08-18T23:51:13.905Z,13.28
2018-08-18T23:53:41.649Z,13.25
2018-08-18T23:56:09.359Z,13.25
2018-08-18T23:58:37.238Z,13.23
